sensor_id;sensor_type;location;lat;lon;timestamp;temperature;humidity
22450;DHT22;11392;57.390;-2.468;2022-08-25T00:01:46;13.50;99.90
22450;DHT22;11392;57.390;-2.468;2022-08-25T00:04:16;13.40;99.90
22450;DHT22;11392;57.390;-2.468;2022-08-25T00:06:45;13.50;99.90
22450;DHT22;11392;57.390;-2.468;2022-08-25T00:09:16;13.40;99.90
22450;DHT22;11392;57.390;-2.468;2022-08-25T00:11:44;13.50;99.90
22450;DHT22;11392;57.390;-2.468;2022-08-25T00:14:16;13.40;99.90
22450;DHT22;11392;57.390;-2.468;2022-08-25T00:16:44;13.40;99.90
22450;DHT22;11392;57.390;-2.468;2022-08-25T00:19:16;13.30;99.90
22450;DHT22;11392;57.390;-2.468;2022-08-25T00:21:44;13.30;99.90
22450;DHT22;11392;57.390;-2.468;2022-08-25T00:24:13;13.40;99.90
22450;DHT22;11392;57.390;-2.468;2022-08-25T00:26:43;13.40;99.90
22450;DHT22;11392;57.390;-2.468;2022-08-25T00:29:11;13.40;99.90
22450;DHT22;11392;57.390;-2.468;2022-08-25T00:31:38;13.40;99.90
22450;DHT22;11392;57.390;-2.468;2022-08-25T00:34:09;13.40;99.90
22450;DHT22;11392;57.390;-2.468;2022-08-25T00:36:37;13.40;99.90
22450;DHT22;11392;57.390;-2.468;2022-08-25T00:39:05;13.40;99.90
22450;DHT22;11392;57.390;-2.468;2022-08-25T00:41:33;13.30;99.90
22450;DHT22;11392;57.390;-2.468;2022-08-25T00:44:03;13.20;99.90
22450;DHT22;11392;57.390;-2.468;2022-08-25T00:46:35;13.30;99.90
22450;DHT22;11392;57.390;-2.468;2022-08-25T00:49:06;13.40;99.90
22450;DHT22;11392;57.390;-2.468;2022-08-25T00:51:57;13.40;99.90
22450;DHT22;11392;57.390;-2.468;2022-08-25T00:54:28;13.40;99.90
22450;DHT22;11392;57.390;-2.468;2022-08-25T00:56:57;13.30;99.90
22450;DHT22;11392;57.390;-2.468;2022-08-25T00:59:25;13.30;99.90
22450;DHT22;11392;57.390;-2.468;2022-08-25T01:01:53;13.40;99.90
22450;DHT22;11392;57.390;-2.468;2022-08-25T01:04:21;13.40;99.90
22450;DHT22;11392;57.390;-2.468;2022-08-25T01:06:48;13.30;99.90
22450;DHT22;11392;57.390;-2.468;2022-08-25T01:09:16;13.40;99.90
22450;DHT22;11392;57.390;-2.468;2022-08-25T01:11:45;13.40;99.90
22450;DHT22;11392;57.390;-2.468;2022-08-25T01:14:16;13.30;99.90
22450;DHT22;11392;57.390;-2.468;2022-08-25T01:16:45;13.30;99.90
22450;DHT22;11392;57.390;-2.468;2022-08-25T01:19:16;13.30;99.90
22450;DHT22;11392;57.390;-2.468;2022-08-25T01:21:49;13.30;99.90
22450;DHT22;11392;57.390;-2.468;2022-08-25T01:24:41;13.30;99.90
22450;DHT22;11392;57.390;-2.468;2022-08-25T01:27:10;13.20;99.90
22450;DHT22;11392;57.390;-2.468;2022-08-25T01:29:38;13.20;99.90
22450;DHT22;11392;57.390;-2.468;2022-08-25T01:32:09;13.20;99.90
22450;DHT22;11392;57.390;-2.468;2022-08-25T01:34:40;13.20;99.90
22450;DHT22;11392;57.390;-2.468;2022-08-25T01:37:09;13.20;99.90
22450;DHT22;11392;57.390;-2.468;2022-08-25T01:39:40;13.20;99.90
22450;DHT22;11392;57.390;-2.468;2022-08-25T01:42:28;13.20;99.90
22450;DHT22;11392;57.390;-2.468;2022-08-25T01:44:58;13.10;99.90
22450;DHT22;11392;57.390;-2.468;2022-08-25T01:47:25;13.10;99.90
22450;DHT22;11392;57.390;-2.468;2022-08-25T01:49:52;13.20;99.90
22450;DHT22;11392;57.390;-2.468;2022-08-25T01:52:23;13.10;99.90
22450;DHT22;11392;57.390;-2.468;2022-08-25T01:54:50;13.10;99.90
22450;DHT22;11392;57.390;-2.468;2022-08-25T01:57:17;13.10;99.90
22450;DHT22;11392;57.390;-2.468;2022-08-25T01:59:44;13.10;99.90
22450;DHT22;11392;57.390;-2.468;2022-08-25T02:02:11;13.00;99.90
22450;DHT22;11392;57.390;-2.468;2022-08-25T02:04:39;13.00;99.90
22450;DHT22;11392;57.390;-2.468;2022-08-25T02:07:10;13.00;99.90
22450;DHT22;11392;57.390;-2.468;2022-08-25T02:09:38;13.00;99.90
22450;DHT22;11392;57.390;-2.468;2022-08-25T02:12:06;12.90;99.90
22450;DHT22;11392;57.390;-2.468;2022-08-25T02:14:35;12.90;99.90
22450;DHT22;11392;57.390;-2.468;2022-08-25T02:17:03;12.90;99.90
22450;DHT22;11392;57.390;-2.468;2022-08-25T02:19:31;12.90;99.90
22450;DHT22;11392;57.390;-2.468;2022-08-25T02:21:59;12.90;99.90
22450;DHT22;11392;57.390;-2.468;2022-08-25T02:24:26;12.90;99.90
22450;DHT22;11392;57.390;-2.468;2022-08-25T02:26:53;12.80;99.90
22450;DHT22;11392;57.390;-2.468;2022-08-25T02:29:21;12.80;99.90
22450;DHT22;11392;57.390;-2.468;2022-08-25T02:31:48;12.80;99.90
22450;DHT22;11392;57.390;-2.468;2022-08-25T02:34:15;12.80;99.90
22450;DHT22;11392;57.390;-2.468;2022-08-25T02:36:42;12.70;99.90
22450;DHT22;11392;57.390;-2.468;2022-08-25T02:39:10;12.70;99.90
22450;DHT22;11392;57.390;-2.468;2022-08-25T02:41:38;12.70;99.90
22450;DHT22;11392;57.390;-2.468;2022-08-25T02:44:06;12.70;99.90
22450;DHT22;11392;57.390;-2.468;2022-08-25T02:46:34;12.80;99.90
22450;DHT22;11392;57.390;-2.468;2022-08-25T02:49:02;12.70;99.90
22450;DHT22;11392;57.390;-2.468;2022-08-25T02:51:29;12.70;99.90
22450;DHT22;11392;57.390;-2.468;2022-08-25T02:53:58;12.70;99.90
22450;DHT22;11392;57.390;-2.468;2022-08-25T02:56:28;12.80;99.90
22450;DHT22;11392;57.390;-2.468;2022-08-25T02:58:55;12.70;99.90
22450;DHT22;11392;57.390;-2.468;2022-08-25T03:01:22;12.70;99.90
22450;DHT22;11392;57.390;-2.468;2022-08-25T03:03:55;12.70;99.90
22450;DHT22;11392;57.390;-2.468;2022-08-25T03:06:23;12.60;99.90
22450;DHT22;11392;57.390;-2.468;2022-08-25T03:08:51;12.70;99.90
22450;DHT22;11392;57.390;-2.468;2022-08-25T03:11:19;12.60;99.90
22450;DHT22;11392;57.390;-2.468;2022-08-25T03:13:46;12.60;99.90
22450;DHT22;11392;57.390;-2.468;2022-08-25T03:16:15;12.60;99.90
22450;DHT22;11392;57.390;-2.468;2022-08-25T03:18:43;12.60;99.90
22450;DHT22;11392;57.390;-2.468;2022-08-25T03:21:10;12.60;99.90
22450;DHT22;11392;57.390;-2.468;2022-08-25T03:23:38;12.50;99.90
22450;DHT22;11392;57.390;-2.468;2022-08-25T03:26:07;12.50;99.90
22450;DHT22;11392;57.390;-2.468;2022-08-25T03:28:53;12.50;99.90
22450;DHT22;11392;57.390;-2.468;2022-08-25T03:31:23;12.50;99.90
22450;DHT22;11392;57.390;-2.468;2022-08-25T03:33:53;12.50;99.90
22450;DHT22;11392;57.390;-2.468;2022-08-25T03:36:20;12.40;99.90
22450;DHT22;11392;57.390;-2.468;2022-08-25T03:38:47;12.40;99.90
22450;DHT22;11392;57.390;-2.468;2022-08-25T03:41:22;12.40;99.90
22450;DHT22;11392;57.390;-2.468;2022-08-25T03:43:55;12.40;99.90
22450;DHT22;11392;57.390;-2.468;2022-08-25T03:46:25;12.40;99.90
22450;DHT22;11392;57.390;-2.468;2022-08-25T03:48:53;12.40;99.90
22450;DHT22;11392;57.390;-2.468;2022-08-25T03:54:20;12.40;99.90
22450;DHT22;11392;57.390;-2.468;2022-08-25T03:56:48;12.40;99.90
22450;DHT22;11392;57.390;-2.468;2022-08-25T03:59:15;12.30;99.90
22450;DHT22;11392;57.390;-2.468;2022-08-25T04:01:43;12.40;99.90
22450;DHT22;11392;57.390;-2.468;2022-08-25T04:04:12;12.30;99.90
22450;DHT22;11392;57.390;-2.468;2022-08-25T04:06:41;12.40;99.90
22450;DHT22;11392;57.390;-2.468;2022-08-25T04:09:09;12.40;99.90
22450;DHT22;11392;57.390;-2.468;2022-08-25T04:11:36;12.30;99.90
22450;DHT22;11392;57.390;-2.468;2022-08-25T04:14:04;12.30;99.90
22450;DHT22;11392;57.390;-2.468;2022-08-25T04:16:33;12.30;99.90
22450;DHT22;11392;57.390;-2.468;2022-08-25T04:19:03;12.20;99.90
22450;DHT22;11392;57.390;-2.468;2022-08-25T04:21:31;12.20;99.90
22450;DHT22;11392;57.390;-2.468;2022-08-25T04:23:58;12.20;99.90
22450;DHT22;11392;57.390;-2.468;2022-08-25T04:26:30;12.20;99.90
22450;DHT22;11392;57.390;-2.468;2022-08-25T04:28:59;12.20;99.90
22450;DHT22;11392;57.390;-2.468;2022-08-25T04:31:27;12.10;99.90
22450;DHT22;11392;57.390;-2.468;2022-08-25T04:33:55;12.10;99.90
22450;DHT22;11392;57.390;-2.468;2022-08-25T04:36:23;12.10;99.90
22450;DHT22;11392;57.390;-2.468;2022-08-25T04:38:50;12.10;99.90
22450;DHT22;11392;57.390;-2.468;2022-08-25T04:41:20;12.10;99.90
22450;DHT22;11392;57.390;-2.468;2022-08-25T04:43:48;12.10;99.90
22450;DHT22;11392;57.390;-2.468;2022-08-25T04:46:22;12.10;99.90
22450;DHT22;11392;57.390;-2.468;2022-08-25T04:48:50;12.00;99.90
22450;DHT22;11392;57.390;-2.468;2022-08-25T04:51:20;12.00;99.90
22450;DHT22;11392;57.390;-2.468;2022-08-25T04:53:49;11.90;99.90
22450;DHT22;11392;57.390;-2.468;2022-08-25T04:56:19;11.90;99.90
22450;DHT22;11392;57.390;-2.468;2022-08-25T04:58:46;11.90;99.90
22450;DHT22;11392;57.390;-2.468;2022-08-25T05:01:15;11.90;99.90
22450;DHT22;11392;57.390;-2.468;2022-08-25T05:03:44;11.80;99.90
22450;DHT22;11392;57.390;-2.468;2022-08-25T05:06:11;11.80;99.90
22450;DHT22;11392;57.390;-2.468;2022-08-25T05:08:42;11.70;99.90
22450;DHT22;11392;57.390;-2.468;2022-08-25T05:11:13;11.60;99.90
22450;DHT22;11392;57.390;-2.468;2022-08-25T05:13:43;11.60;99.90
22450;DHT22;11392;57.390;-2.468;2022-08-25T05:16:18;11.60;99.90
22450;DHT22;11392;57.390;-2.468;2022-08-25T05:18:46;11.50;99.90
22450;DHT22;11392;57.390;-2.468;2022-08-25T05:21:17;11.40;99.90
22450;DHT22;11392;57.390;-2.468;2022-08-25T05:23:45;11.40;99.90
22450;DHT22;11392;57.390;-2.468;2022-08-25T05:26:16;11.40;99.90
22450;DHT22;11392;57.390;-2.468;2022-08-25T05:28:48;11.40;99.90
22450;DHT22;11392;57.390;-2.468;2022-08-25T05:31:17;11.30;99.90
22450;DHT22;11392;57.390;-2.468;2022-08-25T05:33:44;11.30;99.90
22450;DHT22;11392;57.390;-2.468;2022-08-25T05:36:12;11.30;99.90
22450;DHT22;11392;57.390;-2.468;2022-08-25T05:38:40;11.30;99.90
22450;DHT22;11392;57.390;-2.468;2022-08-25T05:41:11;11.40;99.90
22450;DHT22;11392;57.390;-2.468;2022-08-25T05:43:40;11.40;99.90
22450;DHT22;11392;57.390;-2.468;2022-08-25T05:46:08;11.40;99.90
22450;DHT22;11392;57.390;-2.468;2022-08-25T05:48:35;11.40;99.90
22450;DHT22;11392;57.390;-2.468;2022-08-25T05:51:05;11.50;99.90
22450;DHT22;11392;57.390;-2.468;2022-08-25T05:53:33;11.50;99.90
22450;DHT22;11392;57.390;-2.468;2022-08-25T05:56:00;11.60;99.90
22450;DHT22;11392;57.390;-2.468;2022-08-25T05:58:28;11.60;99.90
22450;DHT22;11392;57.390;-2.468;2022-08-25T06:00:56;11.70;99.90
22450;DHT22;11392;57.390;-2.468;2022-08-25T06:03:24;11.80;99.90
22450;DHT22;11392;57.390;-2.468;2022-08-25T06:05:51;11.90;99.90
22450;DHT22;11392;57.390;-2.468;2022-08-25T06:08:18;11.90;99.90
22450;DHT22;11392;57.390;-2.468;2022-08-25T06:10:51;11.90;99.90
22450;DHT22;11392;57.390;-2.468;2022-08-25T06:13:18;12.00;99.90
22450;DHT22;11392;57.390;-2.468;2022-08-25T06:15:58;12.10;99.90
22450;DHT22;11392;57.390;-2.468;2022-08-25T06:18:26;12.20;99.90
22450;DHT22;11392;57.390;-2.468;2022-08-25T06:20:53;12.20;99.90
22450;DHT22;11392;57.390;-2.468;2022-08-25T06:23:20;12.30;99.90
22450;DHT22;11392;57.390;-2.468;2022-08-25T06:25:52;12.40;99.90
22450;DHT22;11392;57.390;-2.468;2022-08-25T06:28:19;12.40;99.90
22450;DHT22;11392;57.390;-2.468;2022-08-25T06:30:46;12.30;99.90
22450;DHT22;11392;57.390;-2.468;2022-08-25T06:33:14;12.50;99.90
22450;DHT22;11392;57.390;-2.468;2022-08-25T06:35:42;12.60;99.90
22450;DHT22;11392;57.390;-2.468;2022-08-25T06:38:10;12.70;99.90
22450;DHT22;11392;57.390;-2.468;2022-08-25T06:40:37;12.90;99.90
22450;DHT22;11392;57.390;-2.468;2022-08-25T06:43:04;13.00;99.90
22450;DHT22;11392;57.390;-2.468;2022-08-25T06:45:34;13.10;99.90
22450;DHT22;11392;57.390;-2.468;2022-08-25T06:48:01;13.30;99.90
22450;DHT22;11392;57.390;-2.468;2022-08-25T06:50:28;13.50;99.90
22450;DHT22;11392;57.390;-2.468;2022-08-25T06:52:55;13.70;99.90
22450;DHT22;11392;57.390;-2.468;2022-08-25T06:55:22;13.90;99.90
22450;DHT22;11392;57.390;-2.468;2022-08-25T06:57:52;14.10;99.90
22450;DHT22;11392;57.390;-2.468;2022-08-25T07:00:24;14.20;99.90
22450;DHT22;11392;57.390;-2.468;2022-08-25T07:02:57;14.40;99.90
22450;DHT22;11392;57.390;-2.468;2022-08-25T07:05:29;14.60;99.90
22450;DHT22;11392;57.390;-2.468;2022-08-25T07:08:09;14.80;99.90
22450;DHT22;11392;57.390;-2.468;2022-08-25T07:10:37;14.80;99.90
22450;DHT22;11392;57.390;-2.468;2022-08-25T07:13:04;14.80;99.90
22450;DHT22;11392;57.390;-2.468;2022-08-25T07:15:31;14.90;99.90
22450;DHT22;11392;57.390;-2.468;2022-08-25T07:17:58;15.10;99.90
22450;DHT22;11392;57.390;-2.468;2022-08-25T07:20:25;15.30;99.90
22450;DHT22;11392;57.390;-2.468;2022-08-25T07:22:53;15.40;99.90
22450;DHT22;11392;57.390;-2.468;2022-08-25T07:25:20;15.80;99.90
22450;DHT22;11392;57.390;-2.468;2022-08-25T07:27:47;16.00;99.90
22450;DHT22;11392;57.390;-2.468;2022-08-25T07:30:15;16.20;99.90
22450;DHT22;11392;57.390;-2.468;2022-08-25T07:32:43;16.30;99.90
22450;DHT22;11392;57.390;-2.468;2022-08-25T07:35:10;16.60;99.90
22450;DHT22;11392;57.390;-2.468;2022-08-25T07:37:53;16.80;99.90
22450;DHT22;11392;57.390;-2.468;2022-08-25T07:40:30;17.10;99.90
22450;DHT22;11392;57.390;-2.468;2022-08-25T07:43:00;17.50;99.90
22450;DHT22;11392;57.390;-2.468;2022-08-25T07:45:30;17.80;99.90
22450;DHT22;11392;57.390;-2.468;2022-08-25T07:48:00;17.80;99.90
22450;DHT22;11392;57.390;-2.468;2022-08-25T07:50:28;17.90;99.90
22450;DHT22;11392;57.390;-2.468;2022-08-25T07:52:57;18.10;99.90
22450;DHT22;11392;57.390;-2.468;2022-08-25T07:55:26;18.40;99.90
22450;DHT22;11392;57.390;-2.468;2022-08-25T07:57:54;18.40;99.90
22450;DHT22;11392;57.390;-2.468;2022-08-25T08:00:32;18.60;99.90
22450;DHT22;11392;57.390;-2.468;2022-08-25T08:03:05;18.50;99.90
22450;DHT22;11392;57.390;-2.468;2022-08-25T08:05:40;18.40;99.90
22450;DHT22;11392;57.390;-2.468;2022-08-25T08:08:07;18.40;99.90
22450;DHT22;11392;57.390;-2.468;2022-08-25T08:10:34;18.60;99.90
22450;DHT22;11392;57.390;-2.468;2022-08-25T08:13:24;18.70;99.90
22450;DHT22;11392;57.390;-2.468;2022-08-25T08:15:52;18.40;99.90
22450;DHT22;11392;57.390;-2.468;2022-08-25T08:18:19;18.20;99.90
22450;DHT22;11392;57.390;-2.468;2022-08-25T08:20:47;18.00;99.90
22450;DHT22;11392;57.390;-2.468;2022-08-25T08:23:17;17.90;99.90
22450;DHT22;11392;57.390;-2.468;2022-08-25T08:25:44;17.70;99.90
22450;DHT22;11392;57.390;-2.468;2022-08-25T08:28:11;17.90;99.90
22450;DHT22;11392;57.390;-2.468;2022-08-25T08:30:38;17.80;99.90
22450;DHT22;11392;57.390;-2.468;2022-08-25T08:33:20;17.90;99.90
22450;DHT22;11392;57.390;-2.468;2022-08-25T08:35:55;18.40;99.90
22450;DHT22;11392;57.390;-2.468;2022-08-25T08:38:24;18.80;99.90
22450;DHT22;11392;57.390;-2.468;2022-08-25T08:56:00;18.90;99.90
22450;DHT22;11392;57.390;-2.468;2022-08-25T08:58:54;19.30;99.90
22450;DHT22;11392;57.390;-2.468;2022-08-25T09:01:32;19.90;99.90
22450;DHT22;11392;57.390;-2.468;2022-08-25T09:04:58;20.10;99.90
22450;DHT22;11392;57.390;-2.468;2022-08-25T09:07:10;19.80;99.90
22450;DHT22;11392;57.390;-2.468;2022-08-25T09:09:40;20.10;99.90
22450;DHT22;11392;57.390;-2.468;2022-08-25T09:12:28;20.20;99.90
22450;DHT22;11392;57.390;-2.468;2022-08-25T09:18:00;20.20;99.90
22450;DHT22;11392;57.390;-2.468;2022-08-25T09:20:46;20.40;99.90
22450;DHT22;11392;57.390;-2.468;2022-08-25T09:23:59;20.30;99.90
22450;DHT22;11392;57.390;-2.468;2022-08-25T09:29:16;20.00;99.90
22450;DHT22;11392;57.390;-2.468;2022-08-25T09:31:47;19.90;99.90
22450;DHT22;11392;57.390;-2.468;2022-08-25T09:34:20;19.80;99.90
22450;DHT22;11392;57.390;-2.468;2022-08-25T09:36:48;19.80;99.90
22450;DHT22;11392;57.390;-2.468;2022-08-25T09:39:19;19.60;99.90
22450;DHT22;11392;57.390;-2.468;2022-08-25T09:41:52;19.50;99.90
22450;DHT22;11392;57.390;-2.468;2022-08-25T09:50:01;19.00;99.90
22450;DHT22;11392;57.390;-2.468;2022-08-25T09:52:38;19.00;99.90
22450;DHT22;11392;57.390;-2.468;2022-08-25T10:02:59;19.10;99.90
22450;DHT22;11392;57.390;-2.468;2022-08-25T10:05:34;19.00;99.90
22450;DHT22;11392;57.390;-2.468;2022-08-25T10:08:21;19.20;99.90
22450;DHT22;11392;57.390;-2.468;2022-08-25T10:10:55;19.50;99.90
22450;DHT22;11392;57.390;-2.468;2022-08-25T10:13:43;19.60;99.90
22450;DHT22;11392;57.390;-2.468;2022-08-25T10:16:21;19.70;99.90
22450;DHT22;11392;57.390;-2.468;2022-08-25T10:19:09;20.10;99.90
22450;DHT22;11392;57.390;-2.468;2022-08-25T10:21:41;19.90;99.90
22450;DHT22;11392;57.390;-2.468;2022-08-25T10:24:10;19.70;99.90
22450;DHT22;11392;57.390;-2.468;2022-08-25T10:26:51;19.60;99.90
22450;DHT22;11392;57.390;-2.468;2022-08-25T10:32:15;19.80;99.90
22450;DHT22;11392;57.390;-2.468;2022-08-25T10:37:43;20.00;99.90
22450;DHT22;11392;57.390;-2.468;2022-08-25T10:40:26;20.10;99.90
22450;DHT22;11392;57.390;-2.468;2022-08-25T10:43:04;20.20;99.90
22450;DHT22;11392;57.390;-2.468;2022-08-25T10:46:15;20.20;99.90
22450;DHT22;11392;57.390;-2.468;2022-08-25T10:52:04;20.20;99.90
22450;DHT22;11392;57.390;-2.468;2022-08-25T11:00:08;20.10;99.90
22450;DHT22;11392;57.390;-2.468;2022-08-25T11:05:41;20.20;99.90
22450;DHT22;11392;57.390;-2.468;2022-08-25T11:10:45;20.50;99.90
22450;DHT22;11392;57.390;-2.468;2022-08-25T11:13:37;20.60;99.90
22450;DHT22;11392;57.390;-2.468;2022-08-25T11:16:13;20.70;99.90
22450;DHT22;11392;57.390;-2.468;2022-08-25T11:18:53;20.70;99.90
22450;DHT22;11392;57.390;-2.468;2022-08-25T11:24:57;20.80;99.90
22450;DHT22;11392;57.390;-2.468;2022-08-25T11:27:37;20.90;99.90
22450;DHT22;11392;57.390;-2.468;2022-08-25T11:30:15;21.00;99.90
22450;DHT22;11392;57.390;-2.468;2022-08-25T11:32:47;21.30;99.90
22450;DHT22;11392;57.390;-2.468;2022-08-25T11:35:35;21.20;99.90
22450;DHT22;11392;57.390;-2.468;2022-08-25T11:51:49;21.40;99.90
22450;DHT22;11392;57.390;-2.468;2022-08-25T11:54:27;21.40;99.90
22450;DHT22;11392;57.390;-2.468;2022-08-25T11:56:59;21.40;99.90
22450;DHT22;11392;57.390;-2.468;2022-08-25T12:00:08;21.70;99.90
22450;DHT22;11392;57.390;-2.468;2022-08-25T12:08:06;22.10;99.90
22450;DHT22;11392;57.390;-2.468;2022-08-25T12:11:00;22.20;99.90
22450;DHT22;11392;57.390;-2.468;2022-08-25T12:13:49;22.20;99.90
22450;DHT22;11392;57.390;-2.468;2022-08-25T12:21:48;22.80;99.90
22450;DHT22;11392;57.390;-2.468;2022-08-25T12:24:42;23.00;99.90
22450;DHT22;11392;57.390;-2.468;2022-08-25T12:41:25;23.70;99.90
22450;DHT22;11392;57.390;-2.468;2022-08-25T12:44:33;24.00;99.90
22450;DHT22;11392;57.390;-2.468;2022-08-25T12:49:34;24.00;99.90
22450;DHT22;11392;57.390;-2.468;2022-08-25T12:52:23;24.20;99.90
22450;DHT22;11392;57.390;-2.468;2022-08-25T12:54:57;24.40;99.90
22450;DHT22;11392;57.390;-2.468;2022-08-25T12:57:44;24.70;99.90
22450;DHT22;11392;57.390;-2.468;2022-08-25T13:00:16;24.90;99.90
22450;DHT22;11392;57.390;-2.468;2022-08-25T13:03:12;24.80;99.90
22450;DHT22;11392;57.390;-2.468;2022-08-25T13:11:29;24.20;99.90
22450;DHT22;11392;57.390;-2.468;2022-08-25T13:14:21;24.50;99.90
22450;DHT22;11392;57.390;-2.468;2022-08-25T13:16:54;24.30;99.90
22450;DHT22;11392;57.390;-2.468;2022-08-25T13:19:23;24.20;99.90
22450;DHT22;11392;57.390;-2.468;2022-08-25T13:21:51;24.10;99.90
22450;DHT22;11392;57.390;-2.468;2022-08-25T13:24:24;24.20;99.90
22450;DHT22;11392;57.390;-2.468;2022-08-25T13:26:58;23.80;99.90
22450;DHT22;11392;57.390;-2.468;2022-08-25T13:29:35;24.20;99.90
22450;DHT22;11392;57.390;-2.468;2022-08-25T13:32:08;24.30;99.90
22450;DHT22;11392;57.390;-2.468;2022-08-25T13:34:41;24.10;99.90
22450;DHT22;11392;57.390;-2.468;2022-08-25T13:37:22;23.80;99.90
22450;DHT22;11392;57.390;-2.468;2022-08-25T13:40:10;23.50;99.90
22450;DHT22;11392;57.390;-2.468;2022-08-25T13:42:40;23.40;99.90
22450;DHT22;11392;57.390;-2.468;2022-08-25T13:45:15;23.30;99.90
22450;DHT22;11392;57.390;-2.468;2022-08-25T13:47:44;23.30;99.90
22450;DHT22;11392;57.390;-2.468;2022-08-25T13:52:52;23.30;99.90
22450;DHT22;11392;57.390;-2.468;2022-08-25T13:58:29;23.30;99.90
22450;DHT22;11392;57.390;-2.468;2022-08-25T14:01:27;23.20;99.90
22450;DHT22;11392;57.390;-2.468;2022-08-25T14:13:09;23.00;99.90
22450;DHT22;11392;57.390;-2.468;2022-08-25T14:15:36;23.00;99.90
22450;DHT22;11392;57.390;-2.468;2022-08-25T14:18:26;23.10;99.90
22450;DHT22;11392;57.390;-2.468;2022-08-25T14:21:01;22.90;99.90
22450;DHT22;11392;57.390;-2.468;2022-08-25T14:23:29;22.70;99.90
22450;DHT22;11392;57.390;-2.468;2022-08-25T14:25:57;22.50;99.90
22450;DHT22;11392;57.390;-2.468;2022-08-25T14:28:26;22.40;99.90
22450;DHT22;11392;57.390;-2.468;2022-08-25T14:33:28;22.50;99.90
22450;DHT22;11392;57.390;-2.468;2022-08-25T14:35:58;22.60;99.90
22450;DHT22;11392;57.390;-2.468;2022-08-25T14:38:28;22.50;99.90
22450;DHT22;11392;57.390;-2.468;2022-08-25T14:40:56;22.40;99.90
22450;DHT22;11392;57.390;-2.468;2022-08-25T14:43:25;22.20;99.90
22450;DHT22;11392;57.390;-2.468;2022-08-25T14:45:59;22.20;99.90
22450;DHT22;11392;57.390;-2.468;2022-08-25T14:48:36;22.20;99.90
22450;DHT22;11392;57.390;-2.468;2022-08-25T14:51:05;22.10;99.90
22450;DHT22;11392;57.390;-2.468;2022-08-25T14:53:32;22.10;99.90
22450;DHT22;11392;57.390;-2.468;2022-08-25T14:55:59;22.10;99.90
22450;DHT22;11392;57.390;-2.468;2022-08-25T14:58:34;22.00;99.90
22450;DHT22;11392;57.390;-2.468;2022-08-25T15:01:16;22.10;99.90
22450;DHT22;11392;57.390;-2.468;2022-08-25T15:04:04;22.20;99.90
22450;DHT22;11392;57.390;-2.468;2022-08-25T15:06:33;22.40;99.90
22450;DHT22;11392;57.390;-2.468;2022-08-25T15:09:04;22.40;99.90
22450;DHT22;11392;57.390;-2.468;2022-08-25T15:11:34;22.50;99.90
22450;DHT22;11392;57.390;-2.468;2022-08-25T15:14:07;22.40;99.90
22450;DHT22;11392;57.390;-2.468;2022-08-25T15:16:39;22.30;99.90
22450;DHT22;11392;57.390;-2.468;2022-08-25T15:19:09;22.10;99.90
22450;DHT22;11392;57.390;-2.468;2022-08-25T15:21:37;21.80;99.90
22450;DHT22;11392;57.390;-2.468;2022-08-25T15:24:06;21.70;99.90
22450;DHT22;11392;57.390;-2.468;2022-08-25T15:26:46;21.80;99.90
22450;DHT22;11392;57.390;-2.468;2022-08-25T15:29:19;22.00;99.90
22450;DHT22;11392;57.390;-2.468;2022-08-25T15:31:46;22.20;99.90
22450;DHT22;11392;57.390;-2.468;2022-08-25T15:34:14;22.30;99.90
22450;DHT22;11392;57.390;-2.468;2022-08-25T15:36:41;22.30;99.90
22450;DHT22;11392;57.390;-2.468;2022-08-25T15:39:09;22.50;99.90
22450;DHT22;11392;57.390;-2.468;2022-08-25T15:41:36;22.80;99.90
22450;DHT22;11392;57.390;-2.468;2022-08-25T15:44:05;22.90;99.90
22450;DHT22;11392;57.390;-2.468;2022-08-25T15:46:34;22.90;99.90
22450;DHT22;11392;57.390;-2.468;2022-08-25T15:49:04;22.80;99.90
22450;DHT22;11392;57.390;-2.468;2022-08-25T15:51:34;22.60;99.90
22450;DHT22;11392;57.390;-2.468;2022-08-25T15:54:01;22.40;99.90
22450;DHT22;11392;57.390;-2.468;2022-08-25T15:56:28;22.30;99.90
22450;DHT22;11392;57.390;-2.468;2022-08-25T15:58:55;22.10;99.90
22450;DHT22;11392;57.390;-2.468;2022-08-25T16:01:25;22.10;99.90
22450;DHT22;11392;57.390;-2.468;2022-08-25T16:03:56;22.00;99.90
22450;DHT22;11392;57.390;-2.468;2022-08-25T16:06:24;22.00;99.90
22450;DHT22;11392;57.390;-2.468;2022-08-25T16:08:52;21.80;99.90
22450;DHT22;11392;57.390;-2.468;2022-08-25T16:11:24;21.60;99.90
22450;DHT22;11392;57.390;-2.468;2022-08-25T16:13:54;21.60;99.90
22450;DHT22;11392;57.390;-2.468;2022-08-25T16:16:24;21.50;99.90
22450;DHT22;11392;57.390;-2.468;2022-08-25T16:18:51;21.30;99.90
22450;DHT22;11392;57.390;-2.468;2022-08-25T16:21:22;21.10;99.90
22450;DHT22;11392;57.390;-2.468;2022-08-25T16:23:57;20.90;99.90
22450;DHT22;11392;57.390;-2.468;2022-08-25T16:26:25;20.80;99.90
22450;DHT22;11392;57.390;-2.468;2022-08-25T16:28:52;20.70;99.90
22450;DHT22;11392;57.390;-2.468;2022-08-25T16:31:20;20.60;99.90
22450;DHT22;11392;57.390;-2.468;2022-08-25T16:33:47;20.50;99.90
22450;DHT22;11392;57.390;-2.468;2022-08-25T16:36:17;20.30;99.90
22450;DHT22;11392;57.390;-2.468;2022-08-25T16:38:47;20.10;99.90
22450;DHT22;11392;57.390;-2.468;2022-08-25T16:41:21;20.00;99.90
22450;DHT22;11392;57.390;-2.468;2022-08-25T16:43:50;19.90;99.90
22450;DHT22;11392;57.390;-2.468;2022-08-25T16:46:19;19.90;99.90
22450;DHT22;11392;57.390;-2.468;2022-08-25T16:48:49;19.90;99.90
22450;DHT22;11392;57.390;-2.468;2022-08-25T16:51:19;19.90;99.90
22450;DHT22;11392;57.390;-2.468;2022-08-25T16:53:56;19.90;99.90
22450;DHT22;11392;57.390;-2.468;2022-08-25T16:56:48;20.00;99.90
22450;DHT22;11392;57.390;-2.468;2022-08-25T16:59:21;19.90;99.90
22450;DHT22;11392;57.390;-2.468;2022-08-25T17:01:50;19.90;99.90
22450;DHT22;11392;57.390;-2.468;2022-08-25T17:04:18;19.80;99.90
22450;DHT22;11392;57.390;-2.468;2022-08-25T17:06:46;19.70;99.90
22450;DHT22;11392;57.390;-2.468;2022-08-25T17:09:18;19.80;99.90
22450;DHT22;11392;57.390;-2.468;2022-08-25T17:11:50;19.80;99.90
22450;DHT22;11392;57.390;-2.468;2022-08-25T17:14:20;19.70;99.90
22450;DHT22;11392;57.390;-2.468;2022-08-25T17:16:47;19.80;99.90
22450;DHT22;11392;57.390;-2.468;2022-08-25T17:19:17;19.80;99.90
22450;DHT22;11392;57.390;-2.468;2022-08-25T17:21:44;19.90;99.90
22450;DHT22;11392;57.390;-2.468;2022-08-25T17:24:15;19.80;99.90
22450;DHT22;11392;57.390;-2.468;2022-08-25T17:26:44;19.70;99.90
22450;DHT22;11392;57.390;-2.468;2022-08-25T17:29:15;19.70;99.90
22450;DHT22;11392;57.390;-2.468;2022-08-25T17:31:43;19.60;99.90
22450;DHT22;11392;57.390;-2.468;2022-08-25T17:34:14;19.50;99.90
22450;DHT22;11392;57.390;-2.468;2022-08-25T17:36:48;19.40;99.90
22450;DHT22;11392;57.390;-2.468;2022-08-25T17:39:16;19.40;99.90
22450;DHT22;11392;57.390;-2.468;2022-08-25T17:41:48;19.30;99.90
22450;DHT22;11392;57.390;-2.468;2022-08-25T17:44:16;19.30;99.90
22450;DHT22;11392;57.390;-2.468;2022-08-25T17:46:44;19.20;99.90
22450;DHT22;11392;57.390;-2.468;2022-08-25T17:49:16;19.10;99.90